sensor_id;sensor_type;location;lat;lon;timestamp;pressure;altitude;pressure_sealevel;temperature;humidity
8286;BME280;4181;43.416;24.598;2023-05-07T00:00:33;100350.63;;;13.50;100.00
8286;BME280;4181;43.416;24.598;2023-05-07T00:02:59;100359.22;;;13.68;100.00
8286;BME280;4181;43.416;24.598;2023-05-07T00:05:26;100365.00;;;13.77;100.00
8286;BME280;4181;43.416;24.598;2023-05-07T00:07:52;100368.94;;;13.91;100.00
8286;BME280;4181;43.416;24.598;2023-05-07T00:10:20;100355.56;;;14.10;100.00
8286;BME280;4181;43.416;24.598;2023-05-07T00:12:45;100380.19;;;13.94;100.00
8286;BME280;4181;43.416;24.598;2023-05-07T00:15:11;100362.94;;;14.04;100.00
8286;BME280;4181;43.416;24.598;2023-05-07T00:17:36;100357.25;;;14.21;100.00
8286;BME280;4181;43.416;24.598;2023-05-07T00:20:03;100342.75;;;14.25;100.00
8286;BME280;4181;43.416;24.598;2023-05-07T00:22:30;100336.47;;;14.35;100.00
8286;BME280;4181;43.416;24.598;2023-05-07T00:27:51;100327.19;;;14.66;100.00
8286;BME280;4181;43.416;24.598;2023-05-07T00:30:16;100319.50;;;14.78;100.00
8286;BME280;4181;43.416;24.598;2023-05-07T00:32:42;100304.66;;;14.69;100.00
8286;BME280;4181;43.416;24.598;2023-05-07T00:35:08;100311.81;;;14.85;100.00
8286;BME280;4181;43.416;24.598;2023-05-07T00:37:33;100310.72;;;14.76;100.00
8286;BME280;4181;43.416;24.598;2023-05-07T00:39:59;100298.91;;;14.75;100.00
8286;BME280;4181;43.416;24.598;2023-05-07T00:42:24;100315.38;;;14.85;100.00
8286;BME280;4181;43.416;24.598;2023-05-07T00:44:50;100307.69;;;14.82;100.00
8286;BME280;4181;43.416;24.598;2023-05-07T00:47:16;100319.22;;;14.89;100.00
8286;BME280;4181;43.416;24.598;2023-05-07T00:49:43;100320.84;;;14.90;100.00
8286;BME280;4181;43.416;24.598;2023-05-07T00:52:11;100321.97;;;14.99;100.00
8286;BME280;4181;43.416;24.598;2023-05-07T00:54:38;100323.88;;;14.84;100.00
8286;BME280;4181;43.416;24.598;2023-05-07T00:57:05;100320.06;;;14.80;100.00
8286;BME280;4181;43.416;24.598;2023-05-07T00:59:32;100312.88;;;14.69;100.00
8286;BME280;4181;43.416;24.598;2023-05-07T01:01:58;100313.44;;;14.51;100.00
8286;BME280;4181;43.416;24.598;2023-05-07T01:04:23;100312.38;;;14.62;100.00
8286;BME280;4181;43.416;24.598;2023-05-07T01:06:49;100306.88;;;14.57;100.00
8286;BME280;4181;43.416;24.598;2023-05-07T01:09:15;100309.03;;;14.45;100.00
8286;BME280;4181;43.416;24.598;2023-05-07T01:11:41;100309.03;;;14.35;100.00
8286;BME280;4181;43.416;24.598;2023-05-07T01:14:08;100306.56;;;14.43;100.00
8286;BME280;4181;43.416;24.598;2023-05-07T01:16:34;100294.50;;;14.54;100.00
8286;BME280;4181;43.416;24.598;2023-05-07T01:19:00;100303.56;;;14.75;100.00
8286;BME280;4181;43.416;24.598;2023-05-07T01:21:26;100288.72;;;14.81;100.00
8286;BME280;4181;43.416;24.598;2023-05-07T01:23:53;100278.28;;;14.93;100.00
8286;BME280;4181;43.416;24.598;2023-05-07T01:26:20;100300.81;;;15.10;100.00
8286;BME280;4181;43.416;24.598;2023-05-07T01:28:45;100300.53;;;15.16;100.00
8286;BME280;4181;43.416;24.598;2023-05-07T01:31:12;100310.13;;;15.24;100.00
8286;BME280;4181;43.416;24.598;2023-05-07T01:33:40;100302.97;;;15.28;100.00
8286;BME280;4181;43.416;24.598;2023-05-07T01:36:07;100307.63;;;15.27;100.00
8286;BME280;4181;43.416;24.598;2023-05-07T01:38:35;100295.84;;;15.27;100.00
8286;BME280;4181;43.416;24.598;2023-05-07T01:41:02;100312.31;;;15.32;100.00
8286;BME280;4181;43.416;24.598;2023-05-07T01:43:28;100304.88;;;15.38;100.00
8286;BME280;4181;43.416;24.598;2023-05-07T01:45:55;100307.63;;;15.43;100.00
8286;BME280;4181;43.416;24.598;2023-05-07T01:48:20;100295.00;;;15.47;100.00
8286;BME280;4181;43.416;24.598;2023-05-07T01:50:46;100306.78;;;15.52;100.00
8286;BME280;4181;43.416;24.598;2023-05-07T01:53:12;100301.25;;;15.57;100.00
8286;BME280;4181;43.416;24.598;2023-05-07T01:55:37;100303.78;;;15.49;100.00
8286;BME280;4181;43.416;24.598;2023-05-07T01:58:04;100298.81;;;15.36;100.00
8286;BME280;4181;43.416;24.598;2023-05-07T02:00:29;100296.06;;;15.36;100.00
8286;BME280;4181;43.416;24.598;2023-05-07T02:02:56;100303.53;;;15.40;100.00
8286;BME280;4181;43.416;24.598;2023-05-07T02:05:22;100306.25;;;15.35;100.00
8286;BME280;4181;43.416;24.598;2023-05-07T02:07:48;100307.38;;;15.24;100.00
8286;BME280;4181;43.416;24.598;2023-05-07T02:10:13;100312.88;;;15.14;100.00
8286;BME280;4181;43.416;24.598;2023-05-07T02:12:39;100313.72;;;15.14;100.00
8286;BME280;4181;43.416;24.598;2023-05-07T02:15:05;100303.00;;;14.98;100.00
8286;BME280;4181;43.416;24.598;2023-05-07T02:17:30;100283.22;;;14.91;100.00
8286;BME280;4181;43.416;24.598;2023-05-07T02:19:58;100300.53;;;14.66;100.00
8286;BME280;4181;43.416;24.598;2023-05-07T02:22:23;100313.72;;;14.54;100.00
8286;BME280;4181;43.416;24.598;2023-05-07T02:24:49;100306.31;;;14.55;100.00
8286;BME280;4181;43.416;24.598;2023-05-07T02:27:14;100295.88;;;14.57;100.00
8286;BME280;4181;43.416;24.598;2023-05-07T02:29:40;100305.72;;;14.43;100.00
8286;BME280;4181;43.416;24.598;2023-05-07T02:32:06;100300.81;;;14.45;100.00
8286;BME280;4181;43.416;24.598;2023-05-07T02:34:31;100301.38;;;14.52;100.00
8286;BME280;4181;43.416;24.598;2023-05-07T02:36:56;100299.41;;;14.32;100.00
8286;BME280;4181;43.416;24.598;2023-05-07T02:39:22;100293.09;;;14.32;100.00
8286;BME280;4181;43.416;24.598;2023-05-07T02:41:47;100277.38;;;14.22;100.00
8286;BME280;4181;43.416;24.598;2023-05-07T02:44:13;100287.63;;;14.32;100.00
8286;BME280;4181;43.416;24.598;2023-05-07T02:46:38;100280.97;;;14.23;100.00
8286;BME280;4181;43.416;24.598;2023-05-07T02:49:04;100287.06;;;14.40;100.00
8286;BME280;4181;43.416;24.598;2023-05-07T02:51:30;100276.66;;;14.37;100.00
8286;BME280;4181;43.416;24.598;2023-05-07T02:53:56;100282.44;;;14.50;100.00
8286;BME280;4181;43.416;24.598;2023-05-07T02:56:21;100299.72;;;14.56;100.00
8286;BME280;4181;43.416;24.598;2023-05-07T02:58:47;100290.13;;;14.63;100.00
8286;BME280;4181;43.416;24.598;2023-05-07T03:01:13;100297.53;;;14.58;100.00
8286;BME280;4181;43.416;24.598;2023-05-07T03:03:39;100307.66;;;14.57;100.00
8286;BME280;4181;43.416;24.598;2023-05-07T03:06:05;100275.53;;;14.38;100.00
8286;BME280;4181;43.416;24.598;2023-05-07T03:08:32;100301.88;;;14.49;100.00
8286;BME280;4181;43.416;24.598;2023-05-07T03:10:58;100289.53;;;14.41;100.00
8286;BME280;4181;43.416;24.598;2023-05-07T03:13:23;100297.50;;;14.53;100.00
8286;BME280;4181;43.416;24.598;2023-05-07T03:15:49;100281.31;;;14.56;100.00
8286;BME280;4181;43.416;24.598;2023-05-07T03:18:14;100289.00;;;14.59;100.00
8286;BME280;4181;43.416;24.598;2023-05-07T03:20:40;100296.97;;;14.61;100.00
8286;BME280;4181;43.416;24.598;2023-05-07T03:23:05;100291.19;;;14.57;100.00
8286;BME280;4181;43.416;24.598;2023-05-07T03:25:31;100292.03;;;14.68;100.00
8286;BME280;4181;43.416;24.598;2023-05-07T03:27:57;100268.41;;;14.57;100.00
8286;BME280;4181;43.416;24.598;2023-05-07T03:30:23;100302.75;;;14.74;100.00
8286;BME280;4181;43.416;24.598;2023-05-07T03:32:49;100298.34;;;14.88;100.00
8286;BME280;4181;43.416;24.598;2023-05-07T03:35:14;100309.06;;;15.00;100.00
8286;BME280;4181;43.416;24.598;2023-05-07T03:37:40;100311.53;;;15.06;100.00
8286;BME280;4181;43.416;24.598;2023-05-07T03:40:06;100314.25;;;15.21;100.00
8286;BME280;4181;43.416;24.598;2023-05-07T03:42:32;100309.28;;;15.34;100.00
8286;BME280;4181;43.416;24.598;2023-05-07T03:44:58;100318.09;;;15.41;100.00
8286;BME280;4181;43.416;24.598;2023-05-07T03:47:23;100284.84;;;15.27;100.00
8286;BME280;4181;43.416;24.598;2023-05-07T03:49:48;100280.44;;;15.41;100.00
8286;BME280;4181;43.416;24.598;2023-05-07T03:52:15;100301.22;;;15.67;100.00
8286;BME280;4181;43.416;24.598;2023-05-07T03:54:41;100313.28;;;15.86;100.00
8286;BME280;4181;43.416;24.598;2023-05-07T03:57:06;100303.66;;;15.84;100.00
8286;BME280;4181;43.416;24.598;2023-05-07T03:59:32;100308.28;;;15.93;100.00
8286;BME280;4181;43.416;24.598;2023-05-07T04:01:57;100304.13;;;15.96;100.00
8286;BME280;4181;43.416;24.598;2023-05-07T04:04:23;100317.53;;;16.17;100.00
8286;BME280;4181;43.416;24.598;2023-05-07T04:06:49;100310.38;;;16.16;100.00
8286;BME280;4181;43.416;24.598;2023-05-07T04:09:14;100306.78;;;16.16;100.00
8286;BME280;4181;43.416;24.598;2023-05-07T04:11:40;100313.63;;;16.28;100.00
8286;BME280;4181;43.416;24.598;2023-05-07T04:14:05;100314.88;;;16.51;100.00
8286;BME280;4181;43.416;24.598;2023-05-07T04:16:31;100308.13;;;16.72;100.00
8286;BME280;4181;43.416;24.598;2023-05-07T04:18:56;100320.03;;;16.96;100.00
8286;BME280;4181;43.416;24.598;2023-05-07T04:21:22;100320.28;;;17.00;100.00
8286;BME280;4181;43.416;24.598;2023-05-07T04:23:48;100325.06;;;16.89;100.00
8286;BME280;4181;43.416;24.598;2023-05-07T04:26:14;100323.53;;;17.07;100.00
8286;BME280;4181;43.416;24.598;2023-05-07T04:28:40;100318.22;;;17.15;100.00
8286;BME280;4181;43.416;24.598;2023-05-07T04:31:06;100322.81;;;17.25;100.00
8286;BME280;4181;43.416;24.598;2023-05-07T04:33:32;100314.50;;;17.30;100.00
8286;BME280;4181;43.416;24.598;2023-05-07T04:36:00;100317.56;;;17.57;100.00
8286;BME280;4181;43.416;24.598;2023-05-07T04:38:31;100321.34;;;17.61;100.00
8286;BME280;4181;43.416;24.598;2023-05-07T04:40:57;100311.97;;;17.62;100.00
8286;BME280;4181;43.416;24.598;2023-05-07T04:43:23;100329.06;;;17.64;100.00
8286;BME280;4181;43.416;24.598;2023-05-07T04:45:52;100323.81;;;17.62;100.00
8286;BME280;4181;43.416;24.598;2023-05-07T04:48:18;100325.47;;;17.87;100.00
8286;BME280;4181;43.416;24.598;2023-05-07T04:50:51;100347.09;;;17.80;100.00
8286;BME280;4181;43.416;24.598;2023-05-07T04:53:17;100344.75;;;17.68;100.00
8286;BME280;4181;43.416;24.598;2023-05-07T04:55:43;100349.91;;;17.75;100.00
8286;BME280;4181;43.416;24.598;2023-05-07T04:58:08;100340.25;;;17.96;100.00
8286;BME280;4181;43.416;24.598;2023-05-07T05:00:34;100338.56;;;18.00;100.00
8286;BME280;4181;43.416;24.598;2023-05-07T05:03:00;100333.25;;;18.27;100.00
8286;BME280;4181;43.416;24.598;2023-05-07T05:05:25;100327.31;;;18.57;100.00
8286;BME280;4181;43.416;24.598;2023-05-07T05:07:51;100310.13;;;18.79;100.00
8286;BME280;4181;43.416;24.598;2023-05-07T05:10:17;100310.25;;;18.87;100.00
8286;BME280;4181;43.416;24.598;2023-05-07T05:12:42;100311.47;;;19.14;100.00
8286;BME280;4181;43.416;24.598;2023-05-07T05:15:08;100312.03;;;19.43;100.00
8286;BME280;4181;43.416;24.598;2023-05-07T05:17:35;100304.06;;;19.41;100.00
8286;BME280;4181;43.416;24.598;2023-05-07T05:20:02;100314.63;;;19.39;100.00
8286;BME280;4181;43.416;24.598;2023-05-07T05:22:27;100312.59;;;19.58;100.00
8286;BME280;4181;43.416;24.598;2023-05-07T05:24:55;100315.47;;;19.80;100.00
8286;BME280;4181;43.416;24.598;2023-05-07T05:27:20;100318.56;;;20.06;100.00
8286;BME280;4181;43.416;24.598;2023-05-07T05:29:45;100312.72;;;20.21;100.00
8286;BME280;4181;43.416;24.598;2023-05-07T05:32:11;100318.75;;;20.23;100.00
8286;BME280;4181;43.416;24.598;2023-05-07T05:34:36;100303.19;;;20.49;100.00
8286;BME280;4181;43.416;24.598;2023-05-07T05:37:02;100304.63;;;20.82;100.00
8286;BME280;4181;43.416;24.598;2023-05-07T05:39:27;100296.88;;;21.15;100.00
8286;BME280;4181;43.416;24.598;2023-05-07T05:41:53;100291.16;;;21.42;100.00
8286;BME280;4181;43.416;24.598;2023-05-07T05:44:18;100290.28;;;21.64;100.00
8286;BME280;4181;43.416;24.598;2023-05-07T05:46:43;100286.22;;;21.70;100.00
8286;BME280;4181;43.416;24.598;2023-05-07T05:49:09;100292.50;;;21.84;100.00
8286;BME280;4181;43.416;24.598;2023-05-07T05:51:35;100298.13;;;22.01;100.00
8286;BME280;4181;43.416;24.598;2023-05-07T05:54:01;100295.66;;;21.99;100.00
8286;BME280;4181;43.416;24.598;2023-05-07T05:56:27;100295.88;;;22.11;100.00
8286;BME280;4181;43.416;24.598;2023-05-07T05:58:53;100292.72;;;22.04;100.00
8286;BME280;4181;43.416;24.598;2023-05-07T06:01:18;100291.81;;;22.43;100.00
8286;BME280;4181;43.416;24.598;2023-05-07T06:03:44;100307.41;;;22.61;100.00
8286;BME280;4181;43.416;24.598;2023-05-07T06:06:10;100290.72;;;22.78;100.00
8286;BME280;4181;43.416;24.598;2023-05-07T06:08:35;100287.72;;;23.00;100.00
8286;BME280;4181;43.416;24.598;2023-05-07T06:11:01;100297.56;;;22.72;100.00
8286;BME280;4181;43.416;24.598;2023-05-07T06:13:27;100295.94;;;22.71;100.00
8286;BME280;4181;43.416;24.598;2023-05-07T06:15:52;100296.41;;;22.90;100.00
8286;BME280;4181;43.416;24.598;2023-05-07T06:18:18;100295.78;;;22.85;100.00
8286;BME280;4181;43.416;24.598;2023-05-07T06:20:43;100285.09;;;23.12;100.00
8286;BME280;4181;43.416;24.598;2023-05-07T06:23:09;100298.47;;;23.44;100.00
8286;BME280;4181;43.416;24.598;2023-05-07T06:25:34;100292.34;;;23.59;100.00
8286;BME280;4181;43.416;24.598;2023-05-07T06:28:00;100303.97;;;22.98;100.00
8286;BME280;4181;43.416;24.598;2023-05-07T06:30:25;100307.91;;;22.63;100.00
8286;BME280;4181;43.416;24.598;2023-05-07T06:32:52;100315.16;;;22.25;100.00
8286;BME280;4181;43.416;24.598;2023-05-07T06:35:17;100327.38;;;22.07;100.00
8286;BME280;4181;43.416;24.598;2023-05-07T06:37:43;100325.91;;;22.01;100.00
8286;BME280;4181;43.416;24.598;2023-05-07T06:40:09;100312.19;;;21.74;100.00
8286;BME280;4181;43.416;24.598;2023-05-07T06:42:35;100330.97;;;21.99;100.00
8286;BME280;4181;43.416;24.598;2023-05-07T06:45:01;100320.56;;;22.13;100.00
8286;BME280;4181;43.416;24.598;2023-05-07T06:47:27;100335.47;;;22.34;100.00
8286;BME280;4181;43.416;24.598;2023-05-07T06:49:53;100316.09;;;22.03;100.00
8286;BME280;4181;43.416;24.598;2023-05-07T06:52:18;100336.94;;;21.84;100.00
8286;BME280;4181;43.416;24.598;2023-05-07T06:54:44;100330.19;;;21.76;100.00
8286;BME280;4181;43.416;24.598;2023-05-07T06:57:09;100334.41;;;21.74;100.00
8286;BME280;4181;43.416;24.598;2023-05-07T06:59:35;100335.56;;;21.73;100.00
8286;BME280;4181;43.416;24.598;2023-05-07T07:02:00;100335.03;;;21.62;100.00
8286;BME280;4181;43.416;24.598;2023-05-07T07:04:26;100334.84;;;21.59;100.00
8286;BME280;4181;43.416;24.598;2023-05-07T07:06:53;100331.59;;;21.65;100.00
8286;BME280;4181;43.416;24.598;2023-05-07T07:09:19;100342.88;;;21.69;100.00
8286;BME280;4181;43.416;24.598;2023-05-07T07:11:44;100329.44;;;21.84;100.00
8286;BME280;4181;43.416;24.598;2023-05-07T07:14:10;100339.59;;;21.89;100.00
8286;BME280;4181;43.416;24.598;2023-05-07T07:16:35;100334.94;;;21.76;100.00
8286;BME280;4181;43.416;24.598;2023-05-07T07:19:01;100343.47;;;21.79;100.00
8286;BME280;4181;43.416;24.598;2023-05-07T07:21:26;100331.38;;;21.84;100.00
8286;BME280;4181;43.416;24.598;2023-05-07T07:23:52;100318.53;;;22.05;100.00
8286;BME280;4181;43.416;24.598;2023-05-07T07:26:17;100334.78;;;22.11;100.00
8286;BME280;4181;43.416;24.598;2023-05-07T07:28:44;100328.28;;;22.33;100.00
8286;BME280;4181;43.416;24.598;2023-05-07T07:31:10;100326.34;;;22.50;100.00
8286;BME280;4181;43.416;24.598;2023-05-07T07:33:35;100335.66;;;22.46;100.00
8286;BME280;4181;43.416;24.598;2023-05-07T07:36:00;100327.78;;;22.31;100.00
8286;BME280;4181;43.416;24.598;2023-05-07T07:38:26;100330.25;;;22.41;100.00
8286;BME280;4181;43.416;24.598;2023-05-07T07:40:51;100323.59;;;22.59;100.00
8286;BME280;4181;43.416;24.598;2023-05-07T07:43:17;100326.72;;;22.66;100.00
8286;BME280;4181;43.416;24.598;2023-05-07T07:45:42;100324.44;;;22.68;100.00
8286;BME280;4181;43.416;24.598;2023-05-07T07:48:08;100310.00;;;23.00;100.00
8286;BME280;4181;43.416;24.598;2023-05-07T07:50:33;100319.78;;;23.23;100.00
8286;BME280;4181;43.416;24.598;2023-05-07T07:52:59;100318.50;;;23.12;100.00
8286;BME280;4181;43.416;24.598;2023-05-07T07:55:25;100313.06;;;23.24;100.00
8286;BME280;4181;43.416;24.598;2023-05-07T07:57:52;100303.88;;;23.49;100.00
8286;BME280;4181;43.416;24.598;2023-05-07T08:00:17;100317.66;;;23.29;100.00
8286;BME280;4181;43.416;24.598;2023-05-07T08:02:43;100301.06;;;23.49;100.00
8286;BME280;4181;43.416;24.598;2023-05-07T08:05:09;100313.53;;;23.43;100.00
8286;BME280;4181;43.416;24.598;2023-05-07T08:07:34;100309.25;;;23.54;100.00
8286;BME280;4181;43.416;24.598;2023-05-07T08:10:00;100321.44;;;23.41;100.00
8286;BME280;4181;43.416;24.598;2023-05-07T08:12:25;100320.63;;;23.32;100.00
8286;BME280;4181;43.416;24.598;2023-05-07T08:14:51;100303.06;;;23.40;100.00
8286;BME280;4181;43.416;24.598;2023-05-07T08:17:16;100298.69;;;23.68;100.00
8286;BME280;4181;43.416;24.598;2023-05-07T08:19:42;100300.34;;;23.69;100.00
8286;BME280;4181;43.416;24.598;2023-05-07T08:22:09;100296.19;;;23.46;100.00
8286;BME280;4181;43.416;24.598;2023-05-07T08:24:35;100299.84;;;23.67;100.00
8286;BME280;4181;43.416;24.598;2023-05-07T08:27:01;100291.81;;;23.74;100.00
8286;BME280;4181;43.416;24.598;2023-05-07T08:29:26;100289.38;;;24.31;100.00
8286;BME280;4181;43.416;24.598;2023-05-07T08:31:52;100290.22;;;24.32;100.00
8286;BME280;4181;43.416;24.598;2023-05-07T08:34:17;100287.38;;;24.11;100.00
8286;BME280;4181;43.416;24.598;2023-05-07T08:36:43;100293.78;;;24.12;100.00
8286;BME280;4181;43.416;24.598;2023-05-07T08:39:11;100306.78;;;23.91;100.00
8286;BME280;4181;43.416;24.598;2023-05-07T08:41:36;100299.91;;;23.97;100.00
8286;BME280;4181;43.416;24.598;2023-05-07T08:44:03;100291.28;;;24.39;100.00
8286;BME280;4181;43.416;24.598;2023-05-07T08:46:31;100290.81;;;24.58;100.00
8286;BME280;4181;43.416;24.598;2023-05-07T08:48:57;100282.97;;;24.31;100.00
8286;BME280;4181;43.416;24.598;2023-05-07T08:51:23;100282.03;;;24.47;100.00
8286;BME280;4181;43.416;24.598;2023-05-07T08:53:49;100271.72;;;24.68;100.00
8286;BME280;4181;43.416;24.598;2023-05-07T08:56:16;100260.56;;;25.01;100.00
8286;BME280;4181;43.416;24.598;2023-05-07T08:58:43;100258.78;;;25.29;100.00
8286;BME280;4181;43.416;24.598;2023-05-07T09:01:12;100267.41;;;24.91;100.00
8286;BME280;4181;43.416;24.598;2023-05-07T09:03:38;100297.91;;;24.06;100.00
8286;BME280;4181;43.416;24.598;2023-05-07T09:06:04;100291.41;;;24.22;100.00
8286;BME280;4181;43.416;24.598;2023-05-07T09:08:32;100274.91;;;24.38;100.00
8286;BME280;4181;43.416;24.598;2023-05-07T09:10:58;100261.91;;;24.83;100.00
8286;BME280;4181;43.416;24.598;2023-05-07T09:13:24;100260.63;;;25.13;100.00
8286;BME280;4181;43.416;24.598;2023-05-07T09:15:50;100258.56;;;25.34;100.00
8286;BME280;4181;43.416;24.598;2023-05-07T09:18:15;100253.06;;;25.26;100.00
8286;BME280;4181;43.416;24.598;2023-05-07T09:20:41;100243.13;;;25.61;100.00
8286;BME280;4181;43.416;24.598;2023-05-07T09:23:07;100239.78;;;25.79;100.00
8286;BME280;4181;43.416;24.598;2023-05-07T09:25:34;100234.66;;;26.05;100.00
8286;BME280;4181;43.416;24.598;2023-05-07T09:28:01;100223.94;;;26.47;100.00
8286;BME280;4181;43.416;24.598;2023-05-07T09:30:30;100220.47;;;26.78;100.00
8286;BME280;4181;43.416;24.598;2023-05-07T09:33:00;100223.91;;;26.59;100.00
8286;BME280;4181;43.416;24.598;2023-05-07T09:35:26;100242.94;;;26.02;100.00
8286;BME280;4181;43.416;24.598;2023-05-07T09:37:58;100257.63;;;25.30;100.00
8286;BME280;4181;43.416;24.598;2023-05-07T09:40:26;100261.22;;;24.86;100.00
8286;BME280;4181;43.416;24.598;2023-05-07T09:42:52;100241.59;;;25.39;100.00
8286;BME280;4181;43.416;24.598;2023-05-07T09:45:28;100243.41;;;25.23;100.00
8286;BME280;4181;43.416;24.598;2023-05-07T09:47:58;100243.69;;;25.30;100.00
8286;BME280;4181;43.416;24.598;2023-05-07T09:50:31;100255.19;;;24.96;100.00
8286;BME280;4181;43.416;24.598;2023-05-07T09:52:57;100241.72;;;24.98;100.00
8286;BME280;4181;43.416;24.598;2023-05-07T09:55:23;100241.09;;;25.25;100.00
8286;BME280;4181;43.416;24.598;2023-05-07T09:57:50;100231.16;;;25.84;100.00
8286;BME280;4181;43.416;24.598;2023-05-07T10:00:18;100212.44;;;26.37;100.00
8286;BME280;4181;43.416;24.598;2023-05-07T10:02:46;100205.50;;;26.86;100.00
8286;BME280;4181;43.416;24.598;2023-05-07T10:05:14;100215.19;;;26.88;100.00
8286;BME280;4181;43.416;24.598;2023-05-07T10:07:40;100204.81;;;26.89;100.00
8286;BME280;4181;43.416;24.598;2023-05-07T10:10:06;100196.81;;;27.18;100.00
8286;BME280;4181;43.416;24.598;2023-05-07T10:12:32;100185.97;;;27.32;100.00
8286;BME280;4181;43.416;24.598;2023-05-07T10:15:06;100208.44;;;27.05;100.00
8286;BME280;4181;43.416;24.598;2023-05-07T10:17:36;100205.81;;;26.29;100.00
8286;BME280;4181;43.416;24.598;2023-05-07T10:20:02;100213.44;;;26.16;100.00
8286;BME280;4181;43.416;24.598;2023-05-07T10:22:38;100212.97;;;26.14;100.00
8286;BME280;4181;43.416;24.598;2023-05-07T10:25:09;100226.03;;;25.74;100.00
8286;BME280;4181;43.416;24.598;2023-05-07T10:27:39;100218.91;;;25.53;100.00
8286;BME280;4181;43.416;24.598;2023-05-07T10:33:03;100209.72;;;25.40;100.00
8286;BME280;4181;43.416;24.598;2023-05-07T10:35:40;100207.16;;;25.59;100.00
8286;BME280;4181;43.416;24.598;2023-05-07T10:38:06;100207.16;;;25.59;100.00
8286;BME280;4181;43.416;24.598;2023-05-07T10:40:32;100215.78;;;25.54;100.00
8286;BME280;4181;43.416;24.598;2023-05-07T10:42:59;100203.78;;;25.66;100.00
8286;BME280;4181;43.416;24.598;2023-05-07T10:45:25;100189.91;;;25.93;100.00
8286;BME280;4181;43.416;24.598;2023-05-07T10:50:37;100194.09;;;26.11;100.00
8286;BME280;4181;43.416;24.598;2023-05-07T10:56:23;100168.75;;;26.32;100.00
8286;BME280;4181;43.416;24.598;2023-05-07T10:58:34;100174.78;;;26.34;100.00
8286;BME280;4181;43.416;24.598;2023-05-07T11:01:02;100173.63;;;25.71;100.00
8286;BME280;4181;43.416;24.598;2023-05-07T11:03:29;100180.72;;;25.81;100.00
8286;BME280;4181;43.416;24.598;2023-05-07T11:06:15;100172.13;;;25.62;100.00
8286;BME280;4181;43.416;24.598;2023-05-07T11:08:57;100173.50;;;25.80;100.00
8286;BME280;4181;43.416;24.598;2023-05-07T11:11:47;100178.50;;;25.86;100.00
8286;BME280;4181;43.416;24.598;2023-05-07T11:17:10;100160.44;;;26.36;100.00
8286;BME280;4181;43.416;24.598;2023-05-07T11:19:52;100166.13;;;26.11;100.00
8286;BME280;4181;43.416;24.598;2023-05-07T11:22:47;100167.53;;;26.05;100.00
8286;BME280;4181;43.416;24.598;2023-05-07T11:25:19;100162.88;;;25.85;100.00
8286;BME280;4181;43.416;24.598;2023-05-07T11:27:45;100170.84;;;25.71;100.00
8286;BME280;4181;43.416;24.598;2023-05-07T11:30:16;100151.31;;;26.11;100.00
8286;BME280;4181;43.416;24.598;2023-05-07T11:32:44;100149.16;;;26.32;100.00
8286;BME280;4181;43.416;24.598;2023-05-07T11:35:12;100154.91;;;26.24;100.00
8286;BME280;4181;43.416;24.598;2023-05-07T11:37:38;100134.13;;;26.52;100.00
8286;BME280;4181;43.416;24.598;2023-05-07T11:40:05;100132.53;;;26.79;100.00
8286;BME280;4181;43.416;24.598;2023-05-07T11:42:35;100145.25;;;26.76;100.00
8286;BME280;4181;43.416;24.598;2023-05-07T11:45:03;100157.97;;;26.06;100.00
8286;BME280;4181;43.416;24.598;2023-05-07T11:47:32;100161.78;;;25.50;100.00
8286;BME280;4181;43.416;24.598;2023-05-07T11:50:02;100138.00;;;25.68;100.00
8286;BME280;4181;43.416;24.598;2023-05-07T11:52:28;100132.56;;;25.99;100.00
8286;BME280;4181;43.416;24.598;2023-05-07T11:54:56;100137.19;;;26.47;100.00
8286;BME280;4181;43.416;24.598;2023-05-07T11:57:23;100152.38;;;26.18;100.00
8286;BME280;4181;43.416;24.598;2023-05-07T11:59:55;100155.66;;;25.96;100.00
8286;BME280;4181;43.416;24.598;2023-05-07T12:02:21;100152.38;;;25.94;100.00
8286;BME280;4181;43.416;24.598;2023-05-07T12:04:47;100142.78;;;26.19;100.00
8286;BME280;4181;43.416;24.598;2023-05-07T12:07:14;100136.09;;;26.36;100.00
8286;BME280;4181;43.416;24.598;2023-05-07T12:09:41;100132.81;;;26.34;100.00
8286;BME280;4181;43.416;24.598;2023-05-07T12:12:06;100123.75;;;26.53;100.00
8286;BME280;4181;43.416;24.598;2023-05-07T12:14:32;100113.19;;;26.74;100.00
8286;BME280;4181;43.416;24.598;2023-05-07T12:17:00;100112.66;;;26.99;100.00
8286;BME280;4181;43.416;24.598;2023-05-07T12:19:29;100119.41;;;26.83;100.00
8286;BME280;4181;43.416;24.598;2023-05-07T12:21:55;100123.59;;;26.61;100.00
8286;BME280;4181;43.416;24.598;2023-05-07T12:24:21;100130.06;;;26.77;100.00
8286;BME280;4181;43.416;24.598;2023-05-07T12:26:47;100121.66;;;26.77;100.00
8286;BME280;4181;43.416;24.598;2023-05-07T12:29:13;100107.59;;;26.89;100.00
8286;BME280;4181;43.416;24.598;2023-05-07T12:31:42;100104.00;;;26.89;100.00
8286;BME280;4181;43.416;24.598;2023-05-07T12:34:08;100123.66;;;26.77;100.00
8286;BME280;4181;43.416;24.598;2023-05-07T12:36:37;100110.94;;;26.52;100.00
8286;BME280;4181;43.416;24.598;2023-05-07T12:39:07;100116.81;;;26.47;100.00
8286;BME280;4181;43.416;24.598;2023-05-07T12:41:53;100113.53;;;26.45;100.00
8286;BME280;4181;43.416;24.598;2023-05-07T12:44:22;100110.84;;;26.20;100.00
8286;BME280;4181;43.416;24.598;2023-05-07T12:46:47;100098.38;;;26.46;100.00
8286;BME280;4181;43.416;24.598;2023-05-07T12:49:12;100097.59;;;26.61;100.00
8286;BME280;4181;43.416;24.598;2023-05-07T12:51:38;100094.38;;;26.59;100.00
8286;BME280;4181;43.416;24.598;2023-05-07T12:54:03;100101.06;;;26.70;100.00
8286;BME280;4181;43.416;24.598;2023-05-07T12:56:35;100088.72;;;26.43;100.00
8286;BME280;4181;43.416;24.598;2023-05-07T12:59:01;100104.22;;;26.41;100.00
8286;BME280;4181;43.416;24.598;2023-05-07T13:01:30;100089.91;;;26.58;100.00